Beverly Municipal Airport Beverly US
ICAO: KBVY
IATA: BVY
Category: Medium
Scheduled Services: No

Elevation: 107 ft
TransAlt. 18000 ft.

Airport Communications:
BOSTON APP/DEP:124.4
ATIS:119.2
CTAF:125.2
GND:121.6
TWR:125.2
UNICOM:122.95

KBVY Zoom In..

Runways:

(A) RW 09 length 4755 ft width 100 ft
LOC 110.50 / hdg 90

(B) RW 16 length 5001 ft width 100 ft
LOC 110.50 / hdg 157

(C) RW 27 length 4755 ft width 100 ft
LOC 110.50 / hdg 270

(D) RW 34 length 5001 ft width 100 ft
LOC 110.50 / hdg 337

Location; KBVY
Day. 23 / Time. 07.25 Zulu
* Altimeter: 30.17
* Temperature: 21° c. 69.8°f.
* Wind from: 120° Speed 07 kn.
Dewpoint: 21° c.
Visibility: 5 Statute Miles.
Clouds: Scattered 500 ft.
Clouds: Overcast 1200 ft.
Conditions: Mist.

KBVY 230725Z AUTO 12007KT 5SM BR SCT005 OVC012 21/21 A3017 RMK AO2 RAE12 P0005 T02110211


Wind From 120°
Speed 07 kn.

 
 
jpsmedia.com for Web Design worldairports.se 2018   terms of use